Independence — WDD6659 — position and weather

sailwx.info

Track history (hours):
 
Tides and Currents Weather Stations Pressure Air Temp Water Temp Dewpoint Dewpoint Depression Visibility Wind Speed Wind Dir Waves Ship Positions

Independence

Owner: Sortwell, Inc. DBA AmNav Maritime Services, Oakland, CA. More information available from US FCC via Universal Licensing System and Coast Guard Vessel Documentation Center.

Last reported at 2014-Oct-01 04:27 UTC. Time now 2014-Oct-01 08:11 UTC.
Position N 33°44' W 118°17'.

Length 24 m; draft 4.9 m.

Type: Tug. MMSI: 367175860.

Date/timePositionNaut miles runAvg speedWind from/ knotsBaromVisibWave heightAir tempDewpointWater temp
2014-Oct-01 04:27N 33°44' W 118°17'0 0.0
2014-Oct-01 03:27N 33°44' W 118°17'0 0.0
2014-Oct-01 02:31N 33°44' W 118°17'0 0.0
2014-Oct-01 01:33N 33°44' W 118°17'0 0.0
2014-Oct-01 00:24N 33°44' W 118°17'0 0.0
2014-Sep-30 23:28N 33°44' W 118°17'0 0.0
2014-Sep-30 22:33N 33°44' W 118°17'0 0.0
2014-Sep-30 21:31N 33°44' W 118°17'0 0.0
2014-Sep-30 20:33N 33°44' W 118°17'2 2.4
2014-Sep-30 19:33N 33°44' W 118°14'2 1.9
2014-Sep-30 18:33N 33°45' W 118°13'0 0.0
2014-Sep-30 17:32N 33°45' W 118°13'0 0.1
2014-Sep-30 14:16N 33°45' W 118°13'0 0.0
2014-Sep-30 12:32N 33°45' W 118°13'0 0.3
2014-Sep-30 11:30N 33°45' W 118°13'2 1.8
2014-Sep-30 10:26N 33°46' W 118°15'2 1.0
2014-Sep-30 08:22N 33°44' W 118°17'0 0.0
2014-Sep-30 01:16N 33°44' W 118°17'0 0.0
2014-Sep-29 22:32N 33°44' W 118°17'0 0.0
2014-Sep-29 21:32N 33°44' W 118°17'4 0.2
2014-Sep-29 03:33N 33°44' W 118°11'1 1.4
2014-Sep-29 02:33N 33°44' W 118°13'3 0.3
2014-Sep-28 15:30N 33°44' W 118°16'2 1.9
2014-Sep-28 14:33N 33°46' W 118°17'3 3.1
2014-Sep-28 13:33N 33°45' W 118°13'2 1.9
2014-Sep-28 12:33N 33°46' W 118°15'2 1.7
2014-Sep-28 11:33N 33°45' W 118°16'3 0.2
2014-Sep-28 00:05N 33°44' W 118°13'2 4.1
2014-Sep-27 23:33N 33°46' W 118°14'1 1.3
2014-Sep-27 22:33N 33°45' W 118°13'2 2.0
2014-Sep-27 21:33N 33°44' W 118°15'1 1.1
2014-Sep-27 20:26N 33°44' W 118°14'2 1.8
2014-Sep-27 19:33N 33°45' W 118°13'1 0.6
2014-Sep-27 17:20N 33°44' W 118°14'2 2.9
2014-Sep-27 16:33N 33°46' W 118°14'2 2.2
2014-Sep-27 15:33N 33°44' W 118°12'1 1.1
2014-Sep-27 14:34N 33°45' W 118°13'0 0.0
2014-Sep-27 13:33N 33°45' W 118°13'0 0.0
2014-Sep-27 12:34N 33°45' W 118°13'1 0.9
2014-Sep-27 11:33N 33°46' W 118°13'2 1.7
2014-Sep-27 10:33N 33°46' W 118°15'2 0.2
2014-Sep-27 02:31N 33°45' W 118°17'4 3.6
2014-Sep-27 01:33N 33°46' W 118°13'1 1.0
2014-Sep-27 00:33N 33°45' W 118°13'2 2.4
2014-Sep-26 23:33N 33°44' W 118°11'1 0.5
2014-Sep-26 22:32N 33°44' W 118°11'2 1.9
2014-Sep-26 21:33N 33°45' W 118°12'1 1.1
2014-Sep-26 20:34N 33°44' W 118°13'2 1.7
2014-Sep-26 19:33N 33°44' W 118°11'2 1.7
2014-Sep-26 18:24N 33°44' W 118°13'1 1.5
2014-Sep-26 17:33N 33°45' W 118°13'0 0.0
2014-Sep-26 16:33N 33°45' W 118°13'2 2.1
2014-Sep-26 15:30N 33°44' W 118°12'0 0.2
2014-Sep-26 14:26N 33°44' W 118°12'4 1.3
2014-Sep-26 11:22N 33°44' W 118°17'0 0.0
2014-Sep-26 10:33N 33°44' W 118°17'0 0.0
2014-Sep-26 09:33N 33°44' W 118°17'0 0.0
2014-Sep-26 08:33N 33°44' W 118°17'0 0.0
2014-Sep-26 07:33N 33°44' W 118°17'0 0.0
2014-Sep-26 06:33N 33°44' W 118°17'0 0.0
2014-Sep-26 05:33N 33°44' W 118°17'0 0.0
2014-Sep-26 04:33N 33°44' W 118°17'0 0.0
2014-Sep-26 03:33N 33°44' W 118°17'0 0.0
2014-Sep-26 02:33N 33°44' W 118°17'0 0.0
2014-Sep-26 01:33N 33°44' W 118°17'0 0.0
2014-Sep-26 00:33N 33°44' W 118°17'4 3.5
2014-Sep-25 23:33N 33°45' W 118°12'1 0.7
2014-Sep-25 22:33N 33°45' W 118°13'2 2.2
2014-Sep-25 21:34N 33°44' W 118°11'1 0.6
2014-Sep-25 20:33N 33°44' W 118°11'3 2.6
2014-Sep-25 19:33N 33°45' W 118°13'3 3.0
2014-Sep-25 18:33N 33°44' W 118°17'0 0.0
2014-Sep-25 17:33N 33°44' W 118°17'0 0.0
2014-Sep-25 16:33N 33°44' W 118°17'0 0.0
2014-Sep-25 15:33N 33°44' W 118°17'0 0.0
2014-Sep-25 14:33N 33°44' W 118°17'3 3.0
2014-Sep-25 13:33N 33°46' W 118°14'1 1.2
2014-Sep-25 12:33N 33°45' W 118°13'2 2.0
2014-Sep-25 11:34N 33°43' W 118°13'3 2.8
2014-Sep-25 10:34N 33°44' W 118°17'0 0.0
2014-Sep-25 09:33N 33°44' W 118°17'0 0.0
2014-Sep-25 08:34N 33°44' W 118°17'0 0.0
2014-Sep-25 07:33N 33°44' W 118°17'0 0.0
2014-Sep-25 06:33N 33°44' W 118°17'0 0.0
2014-Sep-25 05:33N 33°44' W 118°17'0 0.0
2014-Sep-25 04:33N 33°44' W 118°17'0 0.0
2014-Sep-25 03:33N 33°44' W 118°17'3 2.8
2014-Sep-25 02:33N 33°44' W 118°13'2 2.3
2014-Sep-25 01:33N 33°46' W 118°14'0 0.0
2014-Sep-25 00:34N 33°46' W 118°14'0 0.0
2014-Sep-24 23:33N 33°46' W 118°14'0 0.4
2014-Sep-24 22:33N 33°46' W 118°14'2 2.1
2014-Sep-24 21:33N 33°44' W 118°12'1 1.4
2014-Sep-24 20:33N 33°44' W 118°11'5 4.6
2014-Sep-24 19:33N 33°44' W 118°17'0 0.0
2014-Sep-24 18:33N 33°44' W 118°17'0 0.0
2014-Sep-24 17:33N 33°44' W 118°17'3 3.4
2014-Sep-24 16:33N 33°45' W 118°13'0 0.3
2014-Sep-24 15:33N 33°45' W 118°13'0 0.0
2014-Sep-24 14:33N 33°45' W 118°13'0 0.0
2014-Sep-24 13:33N 33°45' W 118°13'1 1.0
2014-Sep-24 12:33N 33°46' W 118°13'3 2.9
2014-Sep-24 11:33N 33°44' W 118°12'4 3.9
2014-Sep-24 10:33N 33°44' W 118°17'0 0.0
2014-Sep-24 09:25N 33°44' W 118°17'0 0.0
2014-Sep-24 08:33N 33°44' W 118°17'0 0.0
2014-Sep-24 07:33N 33°44' W 118°17'0 0.0
2014-Sep-24 06:33N 33°44' W 118°17'0 0.0
2014-Sep-24 05:33N 33°44' W 118°17'0 0.0
2014-Sep-24 04:33N 33°44' W 118°17'0 0.0
2014-Sep-24 03:33N 33°44' W 118°17'0 0.0
2014-Sep-24 02:33N 33°44' W 118°17'0 0.0
2014-Sep-24 01:33N 33°44' W 118°17'0 0.1
2014-Sep-24 00:33N 33°44' W 118°17'0 0.0
2014-Sep-23 23:33N 33°44' W 118°17'0 0.0
2014-Sep-23 22:34N 33°44' W 118°17'0 0.0
2014-Sep-23 21:34N 33°44' W 118°17'0 0.0
2014-Sep-23 20:34N 33°44' W 118°17'1 0.9
2014-Sep-23 19:32N 33°43' W 118°16'3 3.3
2014-Sep-23 18:33N 33°45' W 118°13'0 0.0
2014-Sep-23 17:34N 33°45' W 118°13'0 0.5
2014-Sep-23 16:33N 33°45' W 118°13'4 4.5
2014-Sep-23 15:33N 33°41' W 118°10'3 3.1
2014-Sep-23 14:33N 33°42' W 118°14'3 2.0
2014-Sep-23 13:11N 33°44' W 118°17'0 0.0
2014-Sep-23 07:17N 33°44' W 118°17'0 0.0
2014-Sep-23 06:32N 33°44' W 118°17'0 0.0
2014-Sep-23 05:32N 33°44' W 118°17'0 0.0
2014-Sep-23 04:31N 33°44' W 118°17'1 1.5
2014-Sep-23 03:33N 33°45' W 118°16'1 1.2
2014-Sep-23 02:25N 33°44' W 118°17'0 0.0
2014-Sep-23 01:33N 33°44' W 118°17'0 0.0
2014-Sep-23 00:33N 33°44' W 118°17'0 0.0
2014-Sep-22 22:18N 33°44' W 118°17'4 4.8
2014-Sep-22 21:33N 33°45' W 118°12'2 1.7
2014-Sep-22 20:33N 33°44' W 118°11'4 3.5
2014-Sep-22 19:23N 33°44' W 118°16'2 2.7
2014-Sep-22 18:33N 33°46' W 118°16'3 0.7
2014-Sep-22 14:33N 33°45' W 118°13'1 0.8
2014-Sep-22 13:34N 33°44' W 118°13'2 2.2
2014-Sep-22 12:33N 33°46' W 118°13'3 3.2
2014-Sep-22 11:33N 33°43' W 118°12'4 2.1
2014-Sep-22 09:33N 33°44' W 118°17'2 0.3
2014-Sep-22 01:29N 33°43' W 118°14'3 3.2
2014-Sep-22 00:33N 33°46' W 118°14'2 2.3
2014-Sep-21 23:33N 33°44' W 118°13'  
Track history (hours):
 
Tides and Currents Weather Stations Pressure Air Temp Water Temp Dewpoint Dewpoint Depression Visibility Wind Speed Wind Dir Waves Ship Positions

Independence

Owner: Sortwell, Inc. DBA AmNav Maritime Services, Oakland, CA. More information available from US FCC via Universal Licensing System and Coast Guard Vessel Documentation Center.

Last reported at 2014-Oct-01 04:27 UTC. Time now 2014-Oct-01 08:11 UTC.
Position N 33°44' W 118°17'.

Length 24 m; draft 4.9 m.

Type: Tug. MMSI: 367175860.

Date/timePositionNaut miles runAvg speedWind from/ knotsBaromVisibWave heightAir tempDewpointWater temp
2014-Oct-01 04:27N 33°44' W 118°17'0 0.0
2014-Oct-01 03:27N 33°44' W 118°17'0 0.0
2014-Oct-01 02:31N 33°44' W 118°17'0 0.0
2014-Oct-01 01:33N 33°44' W 118°17'0 0.0
2014-Oct-01 00:24N 33°44' W 118°17'0 0.0
2014-Sep-30 23:28N 33°44' W 118°17'0 0.0
2014-Sep-30 22:33N 33°44' W 118°17'0 0.0
2014-Sep-30 21:31N 33°44' W 118°17'0 0.0
2014-Sep-30 20:33N 33°44' W 118°17'2 2.4
2014-Sep-30 19:33N 33°44' W 118°14'2 1.9
2014-Sep-30 18:33N 33°45' W 118°13'0 0.0
2014-Sep-30 17:32N 33°45' W 118°13'0 0.1
2014-Sep-30 14:16N 33°45' W 118°13'0 0.0
2014-Sep-30 12:32N 33°45' W 118°13'0 0.3
2014-Sep-30 11:30N 33°45' W 118°13'2 1.8
2014-Sep-30 10:26N 33°46' W 118°15'2 1.0
2014-Sep-30 08:22N 33°44' W 118°17'0 0.0
2014-Sep-30 01:16N 33°44' W 118°17'0 0.0
2014-Sep-29 22:32N 33°44' W 118°17'0 0.0
2014-Sep-29 21:32N 33°44' W 118°17'4 0.2
2014-Sep-29 03:33N 33°44' W 118°11'1 1.4
2014-Sep-29 02:33N 33°44' W 118°13'3 0.3
2014-Sep-28 15:30N 33°44' W 118°16'2 1.9
2014-Sep-28 14:33N 33°46' W 118°17'3 3.1
2014-Sep-28 13:33N 33°45' W 118°13'2 1.9
2014-Sep-28 12:33N 33°46' W 118°15'2 1.7
2014-Sep-28 11:33N 33°45' W 118°16'3 0.2
2014-Sep-28 00:05N 33°44' W 118°13'2 4.1
2014-Sep-27 23:33N 33°46' W 118°14'1 1.3
2014-Sep-27 22:33N 33°45' W 118°13'2 2.0
2014-Sep-27 21:33N 33°44' W 118°15'1 1.1
2014-Sep-27 20:26N 33°44' W 118°14'2 1.8
2014-Sep-27 19:33N 33°45' W 118°13'1 0.6
2014-Sep-27 17:20N 33°44' W 118°14'2 2.9
2014-Sep-27 16:33N 33°46' W 118°14'2 2.2
2014-Sep-27 15:33N 33°44' W 118°12'1 1.1
2014-Sep-27 14:34N 33°45' W 118°13'0 0.0
2014-Sep-27 13:33N 33°45' W 118°13'0 0.0
2014-Sep-27 12:34N 33°45' W 118°13'1 0.9
2014-Sep-27 11:33N 33°46' W 118°13'2 1.7
2014-Sep-27 10:33N 33°46' W 118°15'2 0.2
2014-Sep-27 02:31N 33°45' W 118°17'4 3.6
2014-Sep-27 01:33N 33°46' W 118°13'1 1.0
2014-Sep-27 00:33N 33°45' W 118°13'2 2.4
2014-Sep-26 23:33N 33°44' W 118°11'1 0.5
2014-Sep-26 22:32N 33°44' W 118°11'2 1.9
2014-Sep-26 21:33N 33°45' W 118°12'1 1.1
2014-Sep-26 20:34N 33°44' W 118°13'2 1.7
2014-Sep-26 19:33N 33°44' W 118°11'2 1.7
2014-Sep-26 18:24N 33°44' W 118°13'1 1.5
2014-Sep-26 17:33N 33°45' W 118°13'0 0.0
2014-Sep-26 16:33N 33°45' W 118°13'2 2.1
2014-Sep-26 15:30N 33°44' W 118°12'0 0.2
2014-Sep-26 14:26N 33°44' W 118°12'4 1.3
2014-Sep-26 11:22N 33°44' W 118°17'0 0.0
2014-Sep-26 10:33N 33°44' W 118°17'0 0.0
2014-Sep-26 09:33N 33°44' W 118°17'0 0.0
2014-Sep-26 08:33N 33°44' W 118°17'0 0.0
2014-Sep-26 07:33N 33°44' W 118°17'0 0.0
2014-Sep-26 06:33N 33°44' W 118°17'0 0.0
2014-Sep-26 05:33N 33°44' W 118°17'0 0.0
2014-Sep-26 04:33N 33°44' W 118°17'0 0.0
2014-Sep-26 03:33N 33°44' W 118°17'0 0.0
2014-Sep-26 02:33N 33°44' W 118°17'0 0.0
2014-Sep-26 01:33N 33°44' W 118°17'0 0.0
2014-Sep-26 00:33N 33°44' W 118°17'4 3.5
2014-Sep-25 23:33N 33°45' W 118°12'1 0.7
2014-Sep-25 22:33N 33°45' W 118°13'2 2.2
2014-Sep-25 21:34N 33°44' W 118°11'1 0.6
2014-Sep-25 20:33N 33°44' W 118°11'3 2.6
2014-Sep-25 19:33N 33°45' W 118°13'3 3.0
2014-Sep-25 18:33N 33°44' W 118°17'0 0.0
2014-Sep-25 17:33N 33°44' W 118°17'0 0.0
2014-Sep-25 16:33N 33°44' W 118°17'0 0.0
2014-Sep-25 15:33N 33°44' W 118°17'0 0.0
2014-Sep-25 14:33N 33°44' W 118°17'3 3.0
2014-Sep-25 13:33N 33°46' W 118°14'1 1.2
2014-Sep-25 12:33N 33°45' W 118°13'2 2.0
2014-Sep-25 11:34N 33°43' W 118°13'3 2.8
2014-Sep-25 10:34N 33°44' W 118°17'0 0.0
2014-Sep-25 09:33N 33°44' W 118°17'0 0.0
2014-Sep-25 08:34N 33°44' W 118°17'0 0.0
2014-Sep-25 07:33N 33°44' W 118°17'0 0.0
2014-Sep-25 06:33N 33°44' W 118°17'0 0.0
2014-Sep-25 05:33N 33°44' W 118°17'0 0.0
2014-Sep-25 04:33N 33°44' W 118°17'0 0.0
2014-Sep-25 03:33N 33°44' W 118°17'3 2.8
2014-Sep-25 02:33N 33°44' W 118°13'2 2.3
2014-Sep-25 01:33N 33°46' W 118°14'0 0.0
2014-Sep-25 00:34N 33°46' W 118°14'0 0.0
2014-Sep-24 23:33N 33°46' W 118°14'0 0.4
2014-Sep-24 22:33N 33°46' W 118°14'2 2.1
2014-Sep-24 21:33N 33°44' W 118°12'1 1.4
2014-Sep-24 20:33N 33°44' W 118°11'5 4.6
2014-Sep-24 19:33N 33°44' W 118°17'0 0.0
2014-Sep-24 18:33N 33°44' W 118°17'0 0.0
2014-Sep-24 17:33N 33°44' W 118°17'3 3.4
2014-Sep-24 16:33N 33°45' W 118°13'0 0.3
2014-Sep-24 15:33N 33°45' W 118°13'0 0.0
2014-Sep-24 14:33N 33°45' W 118°13'0 0.0
2014-Sep-24 13:33N 33°45' W 118°13'1 1.0
2014-Sep-24 12:33N 33°46' W 118°13'3 2.9
2014-Sep-24 11:33N 33°44' W 118°12'4 3.9
2014-Sep-24 10:33N 33°44' W 118°17'0 0.0
2014-Sep-24 09:25N 33°44' W 118°17'0 0.0
2014-Sep-24 08:33N 33°44' W 118°17'0 0.0
2014-Sep-24 07:33N 33°44' W 118°17'0 0.0
2014-Sep-24 06:33N 33°44' W 118°17'0 0.0
2014-Sep-24 05:33N 33°44' W 118°17'0 0.0
2014-Sep-24 04:33N 33°44' W 118°17'0 0.0
2014-Sep-24 03:33N 33°44' W 118°17'0 0.0
2014-Sep-24 02:33N 33°44' W 118°17'0 0.0
2014-Sep-24 01:33N 33°44' W 118°17'0 0.1
2014-Sep-24 00:33N 33°44' W 118°17'0 0.0
2014-Sep-23 23:33N 33°44' W 118°17'0 0.0
2014-Sep-23 22:34N 33°44' W 118°17'0 0.0
2014-Sep-23 21:34N 33°44' W 118°17'0 0.0
2014-Sep-23 20:34N 33°44' W 118°17'1 0.9
2014-Sep-23 19:32N 33°43' W 118°16'3 3.3
2014-Sep-23 18:33N 33°45' W 118°13'0 0.0
2014-Sep-23 17:34N 33°45' W 118°13'0 0.5
2014-Sep-23 16:33N 33°45' W 118°13'4 4.5
2014-Sep-23 15:33N 33°41' W 118°10'3 3.1
2014-Sep-23 14:33N 33°42' W 118°14'3 2.0
2014-Sep-23 13:11N 33°44' W 118°17'0 0.0
2014-Sep-23 07:17N 33°44' W 118°17'0 0.0
2014-Sep-23 06:32N 33°44' W 118°17'0 0.0
2014-Sep-23 05:32N 33°44' W 118°17'0 0.0
2014-Sep-23 04:31N 33°44' W 118°17'1 1.5
2014-Sep-23 03:33N 33°45' W 118°16'1 1.2
2014-Sep-23 02:25N 33°44' W 118°17'0 0.0
2014-Sep-23 01:33N 33°44' W 118°17'0 0.0
2014-Sep-23 00:33N 33°44' W 118°17'0 0.0
2014-Sep-22 22:18N 33°44' W 118°17'4 4.8
2014-Sep-22 21:33N 33°45' W 118°12'2 1.7
2014-Sep-22 20:33N 33°44' W 118°11'4 3.5
2014-Sep-22 19:23N 33°44' W 118°16'2 2.7
2014-Sep-22 18:33N 33°46' W 118°16'3 0.7
2014-Sep-22 14:33N 33°45' W 118°13'1 0.8
2014-Sep-22 13:34N 33°44' W 118°13'2 2.2
2014-Sep-22 12:33N 33°46' W 118°13'3 3.2
2014-Sep-22 11:33N 33°43' W 118°12'4 2.1
2014-Sep-22 09:33N 33°44' W 118°17'2 0.3
2014-Sep-22 01:29N 33°43' W 118°14'3 3.2
2014-Sep-22 00:33N 33°46' W 118°14'2 2.3
2014-Sep-21 23:33N 33°44' W 118°13'  

Dump ship's entire track history